Time;durP1;ratioP1;P1;durP2;ratioP2;P2;SDS_P1;SDS_P2;PMS_P1;PMS_P2;Temp;Humidity;BMP_temperature;BMP_pressure;BME280_temperature;BME280_humidity;BME280_pressure;Samples;Min_cycle;Max_cycle;Signal;HPM_P1;HPM_P2
2022/05/24 00:02:01;;;;;;;1.75;0.50;;;16.90;99.90;;;;;;4821152;29;20495;-89
2022/05/24 00:04:30;;;;;;;1.08;0.30;;;17.00;99.90;;;;;;4822154;29;20038;-89
2022/05/24 00:06:59;;;;;;;0.75;0.30;;;17.00;99.90;;;;;;4825055;29;20394;-90
2022/05/24 00:09:30;;;;;;;1.05;0.50;;;17.00;99.90;;;;;;4822491;29;20026;-89
2022/05/24 00:11:55;;;;;;;1.03;0.50;;;17.00;99.90;;;;;;4856600;23;20496;-87
2022/05/24 00:17:08;;;;;;;0.63;0.28;;;17.00;99.90;;;;;;4847541;29;20080;-89
2022/05/24 00:19:34;;;;;;;0.40;0.20;;;17.00;99.90;;;;;;4848074;29;20038;-89
2022/05/24 00:22:00;;;;;;;0.63;0.20;;;17.10;99.90;;;;;;4834408;29;20058;-88
2022/05/24 00:24:26;;;;;;;0.30;0.10;;;17.00;99.90;;;;;;4828876;29;20049;-88
2022/05/24 00:26:52;;;;;;;0.20;0.10;;;17.00;99.90;;;;;;4826334;29;20124;-89
2022/05/24 00:29:20;;;;;;;0.22;0.10;;;17.00;99.90;;;;;;4826216;29;20031;-89
2022/05/24 00:31:47;;;;;;;0.50;0.13;;;16.90;99.90;;;;;;4825621;29;20030;-89
2022/05/24 00:34:13;;;;;;;0.75;0.22;;;16.80;99.90;;;;;;4824081;29;20038;-88
2022/05/24 00:36:38;;;;;;;0.35;0.10;;;16.80;99.90;;;;;;4827221;29;20382;-88
2022/05/24 00:39:05;;;;;;;0.10;0.03;;;16.70;99.90;;;;;;4826008;29;20055;-89
2022/05/24 00:41:34;;;;;;;1.02;0.20;;;16.70;99.90;;;;;;4823704;29;20034;-88
2022/05/24 00:44:23;;;;;;;0.25;0.10;;;16.60;99.90;;;;;;4825140;29;20015;-89
2022/05/24 00:46:56;;;;;;;0.63;0.20;;;16.60;99.90;;;;;;4821728;29;20492;-89
2022/05/24 00:49:49;;;;;;;1.40;0.30;;;16.60;99.90;;;;;;4819537;29;20121;-89
2022/05/24 00:52:38;;;;;;;0.20;0.10;;;16.50;99.90;;;;;;4822820;29;20034;-88
2022/05/24 00:55:04;;;;;;;0.10;0.00;;;16.40;99.90;;;;;;4812534;29;20397;-89
2022/05/24 00:57:36;;;;;;;0.63;0.00;;;16.40;99.90;;;;;;4821066;29;20355;-89
2022/05/24 01:00:05;;;;;;;1.90;0.40;;;16.40;99.90;;;;;;4832404;29;20038;-89
2022/05/24 01:02:31;;;;;;;0.52;0.10;;;16.50;99.90;;;;;;4822869;29;20031;-89
2022/05/24 01:04:57;;;;;;;0.47;0.00;;;16.50;99.90;;;;;;4820000;29;20053;-89
2022/05/24 01:07:23;;;;;;;0.35;0.10;;;16.50;99.90;;;;;;4825417;29;20044;-89
2022/05/24 01:10:00;;;;;;;0.28;0.10;;;16.60;99.90;;;;;;4823399;29;20396;-89
2022/05/24 01:12:34;;;;;;;0.43;0.10;;;16.40;99.90;;;;;;4822264;29;20038;-89
2022/05/24 01:15:09;;;;;;;0.10;0.10;;;16.40;99.90;;;;;;4815698;29;20473;-88
2022/05/24 01:17:36;;;;;;;0.17;0.10;;;16.40;99.90;;;;;;4828951;29;20061;-88
2022/05/24 01:20:02;;;;;;;0.30;0.10;;;16.40;99.90;;;;;;4840916;29;20060;-90
2022/05/24 01:22:57;;;;;;;0.15;0.08;;;16.40;99.90;;;;;;4819443;29;20042;-89
2022/05/24 01:25:42;;;;;;;0.20;0.10;;;16.40;99.90;;;;;;4827399;29;20035;-89
2022/05/24 01:28:15;;;;;;;0.40;0.10;;;16.30;99.90;;;;;;4825885;29;20035;-89
2022/05/24 01:30:41;;;;;;;0.47;0.17;;;16.40;99.90;;;;;;4819724;29;20031;-89
2022/05/24 01:36:10;;;;;;;0.10;0.10;;;16.40;99.90;;;;;;4828783;29;20414;-88
2022/05/24 01:38:43;;;;;;;0.40;0.20;;;16.30;99.90;;;;;;4827385;29;20038;-89
2022/05/24 01:41:11;;;;;;;0.17;0.10;;;16.30;99.90;;;;;;4828977;29;20065;-89
2022/05/24 01:43:39;;;;;;;0.20;0.10;;;16.30;99.90;;;;;;4821772;29;20032;-89
2022/05/24 01:46:10;;;;;;;0.00;0.00;;;16.40;99.90;;;;;;4822776;29;20058;-90
2022/05/24 01:48:47;;;;;;;0.13;0.03;;;16.20;99.90;;;;;;4821022;29;20034;-89
2022/05/24 01:51:17;;;;;;;0.40;0.10;;;16.30;99.90;;;;;;4827967;29;20045;-89
2022/05/24 01:53:47;;;;;;;0.30;0.10;;;16.30;99.90;;;;;;4822066;29;20110;-90
2022/05/24 01:56:20;;;;;;;0.25;0.10;;;16.30;99.90;;;;;;4825042;29;20034;-89
2022/05/24 01:58:51;;;;;;;0.28;0.10;;;16.20;99.90;;;;;;4820656;29;20034;-89
2022/05/24 02:01:26;;;;;;;0.20;0.10;;;16.30;99.90;;;;;;4823708;29;20108;-89
2022/05/24 02:04:01;;;;;;;0.50;0.17;;;16.50;99.90;;;;;;4822747;29;20122;-89
2022/05/24 02:06:28;;;;;;;0.10;0.10;;;16.40;99.90;;;;;;4825004;29;20090;-89
2022/05/24 02:08:54;;;;;;;0.22;0.10;;;16.40;99.90;;;;;;4824267;29;20748;-89
2022/05/24 02:11:31;;;;;;;0.20;0.10;;;16.30;99.90;;;;;;4825575;29;20050;-89
2022/05/24 02:14:24;;;;;;;1.17;0.10;;;16.40;99.90;;;;;;4822324;29;20045;-89
2022/05/24 02:17:19;;;;;;;1.35;0.10;;;16.30;99.90;;;;;;4819717;29;20030;-89
2022/05/24 02:19:54;;;;;;;0.17;0.08;;;16.30;99.90;;;;;;4820792;29;20080;-90
2022/05/24 02:22:23;;;;;;;1.75;0.10;;;16.30;99.90;;;;;;4821130;29;20460;-89
2022/05/24 02:25:09;;;;;;;0.63;0.10;;;16.30;99.90;;;;;;4824053;29;20034;-89
2022/05/24 02:27:45;;;;;;;0.70;0.20;;;16.30;99.90;;;;;;4821725;29;20484;-89
2022/05/24 02:30:21;;;;;;;0.08;0.00;;;16.30;99.90;;;;;;4826479;29;20026;-90
2022/05/24 02:32:47;;;;;;;0.25;0.10;;;16.30;99.90;;;;;;4827684;29;20033;-89
2022/05/24 02:35:16;;;;;;;0.10;0.10;;;16.10;99.90;;;;;;4822005;29;20034;-90
2022/05/24 02:37:45;;;;;;;0.10;0.10;;;16.20;99.90;;;;;;4821763;29;20041;-89
2022/05/24 02:42:56;;;;;;;1.00;0.20;;;16.20;99.90;;;;;;4825799;29;20408;-90
2022/05/24 02:45:23;;;;;;;0.30;0.17;;;16.20;99.90;;;;;;4823357;29;20030;-89
2022/05/24 02:47:49;;;;;;;1.00;0.20;;;16.10;99.90;;;;;;4824864;29;20022;-90
2022/05/24 02:50:16;;;;;;;0.63;0.22;;;16.10;99.90;;;;;;4833084;29;20124;-90
2022/05/24 02:52:42;;;;;;;0.20;0.10;;;16.20;99.90;;;;;;4827915;29;20078;-89
2022/05/24 02:55:10;;;;;;;0.22;0.13;;;16.10;99.90;;;;;;4826376;29;20588;-89
2022/05/24 02:57:36;;;;;;;0.40;0.17;;;16.00;99.90;;;;;;4826523;29;20030;-89
2022/05/24 03:00:05;;;;;;;0.30;0.10;;;16.00;99.90;;;;;;4825955;29;20037;-89
2022/05/24 03:02:31;;;;;;;0.20;0.10;;;16.00;99.90;;;;;;4810921;29;20046;-90
2022/05/24 03:04:56;;;;;;;0.03;0.03;;;15.90;99.90;;;;;;4822268;29;20035;-89
2022/05/24 03:10:06;;;;;;;0.45;0.10;;;15.70;99.90;;;;;;4825858;29;20503;-89
2022/05/24 03:15:16;;;;;;;0.10;0.10;;;15.80;99.90;;;;;;4826671;29;20111;-89
2022/05/24 03:17:42;;;;;;;0.50;0.17;;;15.70;99.90;;;;;;4820854;29;20488;-88
2022/05/24 03:20:09;;;;;;;0.35;0.10;;;15.80;99.90;;;;;;4821185;29;20083;-90
2022/05/24 03:22:35;;;;;;;1.02;0.20;;;15.80;99.90;;;;;;4823000;29;20037;-89
2022/05/24 03:25:01;;;;;;;0.75;0.20;;;15.80;99.90;;;;;;4823791;29;20413;-89
2022/05/24 03:27:27;;;;;;;0.20;0.10;;;15.70;99.90;;;;;;4822194;29;20138;-89
2022/05/24 03:29:52;;;;;;;0.30;0.20;;;15.70;99.90;;;;;;4824363;29;20129;-89
2022/05/24 03:32:19;;;;;;;0.20;0.10;;;15.80;99.90;;;;;;4824831;29;20109;-88
2022/05/24 03:34:45;;;;;;;0.60;0.20;;;15.80;99.90;;;;;;4813293;29;20031;-88
2022/05/24 03:37:11;;;;;;;0.30;0.20;;;15.80;99.90;;;;;;4822747;29;20118;-88
2022/05/24 03:39:37;;;;;;;1.15;0.22;;;15.70;99.90;;;;;;4821812;29;20451;-88
2022/05/24 03:42:04;;;;;;;1.83;0.20;;;15.70;99.90;;;;;;4822551;29;20034;-88
2022/05/24 03:44:30;;;;;;;0.40;0.20;;;15.70;99.90;;;;;;4824629;29;20062;-88
2022/05/24 03:46:55;;;;;;;1.10;0.20;;;15.70;99.90;;;;;;4821893;29;20065;-88
2022/05/24 03:49:22;;;;;;;0.40;0.22;;;15.80;99.90;;;;;;4821702;29;20046;-89
2022/05/24 03:51:48;;;;;;;0.98;0.20;;;15.70;99.90;;;;;;4822731;29;20102;-88
2022/05/24 03:54:14;;;;;;;0.17;0.10;;;15.70;99.90;;;;;;4824956;29;20038;-88
2022/05/24 03:57:59;;;;;;;0.63;0.20;;;15.80;99.90;;;;;;4825503;29;20062;-88
2022/05/24 03:59:26;;;;;;;0.98;0.30;;;15.80;99.90;;;;;;4824457;29;20556;-88
2022/05/24 04:01:52;;;;;;;0.20;0.10;;;15.70;99.90;;;;;;4824085;29;20144;-88
2022/05/24 04:04:18;;;;;;;0.10;0.10;;;15.80;99.90;;;;;;4823865;29;20038;-88
2022/05/24 04:06:43;;;;;;;1.00;0.10;;;15.80;99.90;;;;;;4826147;29;20074;-88
2022/05/24 04:09:09;;;;;;;1.15;0.22;;;15.70;99.90;;;;;;4829485;29;20071;-89
2022/05/24 04:11:35;;;;;;;0.55;0.20;;;15.70;99.90;;;;;;4824558;29;20074;-89
2022/05/24 04:14:00;;;;;;;0.20;0.10;;;15.80;99.90;;;;;;4824441;29;20073;-88
2022/05/24 04:16:27;;;;;;;0.88;0.20;;;15.80;99.90;;;;;;4823564;29;20035;-88
2022/05/24 04:18:52;;;;;;;0.35;0.10;;;15.90;99.90;;;;;;4824472;29;20428;-88
2022/05/24 04:21:18;;;;;;;0.50;0.20;;;15.80;99.90;;;;;;4827562;29;20105;-88
2022/05/24 04:23:44;;;;;;;0.70;0.20;;;15.80;99.90;;;;;;4825218;29;20131;-89
2022/05/24 04:26:09;;;;;;;0.63;0.20;;;15.90;99.90;;;;;;4822515;29;20121;-89
2022/05/24 04:28:44;;;;;;;0.55;0.10;;;15.90;99.90;;;;;;4823518;29;20508;-90
2022/05/24 04:31:10;;;;;;;0.60;0.20;;;15.80;99.90;;;;;;4822403;29;20548;-90
2022/05/24 04:33:35;;;;;;;0.22;0.10;;;15.90;99.90;;;;;;4815214;29;20038;-88
2022/05/24 04:36:01;;;;;;;0.55;0.28;;;15.60;99.90;;;;;;4824374;29;20061;-88
2022/05/24 04:38:27;;;;;;;0.40;0.10;;;15.80;99.90;;;;;;4826304;29;21105;-88
2022/05/24 04:43:37;;;;;;;0.30;0.30;;;15.80;99.90;;;;;;4825145;29;20125;-88
2022/05/24 04:46:04;;;;;;;0.32;0.10;;;15.90;99.90;;;;;;4825577;29;20535;-88
2022/05/24 04:48:29;;;;;;;0.45;0.10;;;15.80;99.90;;;;;;4822426;29;20395;-88
2022/05/24 04:50:57;;;;;;;0.20;0.10;;;15.70;99.90;;;;;;4821898;29;20035;-89
2022/05/24 04:53:27;;;;;;;0.35;0.20;;;15.90;99.90;;;;;;4828071;29;20034;-88
2022/05/24 04:55:53;;;;;;;1.02;0.20;;;15.80;99.90;;;;;;4819426;29;20090;-89
2022/05/24 04:58:20;;;;;;;0.60;0.10;;;15.70;99.90;;;;;;4820839;29;20030;-90
2022/05/24 06:13:03;;;;;;;;;;;16.60;99.90;;;;;;4123631;23;20083;-88
2022/05/24 06:15:30;;;;;;;0.90;0.25;;;16.90;99.90;;;;;;4858391;29;19912;-87
2022/05/24 06:17:57;;;;;;;0.63;0.20;;;17.10;99.90;;;;;;4858990;29;20033;-87
2022/05/24 06:20:26;;;;;;;0.38;0.25;;;17.20;99.90;;;;;;4861720;29;20040;-88
2022/05/24 06:22:54;;;;;;;0.90;0.30;;;17.20;99.90;;;;;;4855342;29;20132;-88
2022/05/24 06:25:23;;;;;;;0.35;0.20;;;17.10;99.90;;;;;;4859122;29;20037;-88
2022/05/24 06:27:49;;;;;;;0.63;0.20;;;17.10;99.90;;;;;;4868992;29;20026;-88
2022/05/24 06:30:16;;;;;;;0.52;0.20;;;17.10;99.90;;;;;;4872401;29;20439;-88
2022/05/24 06:32:41;;;;;;;1.15;0.30;;;17.10;99.90;;;;;;4873928;29;20017;-88
2022/05/24 06:35:08;;;;;;;1.10;0.43;;;17.10;99.90;;;;;;4845323;29;20034;-88
2022/05/24 06:37:33;;;;;;;0.73;0.30;;;17.10;99.90;;;;;;4848205;29;20037;-88
2022/05/24 06:39:59;;;;;;;0.80;0.35;;;17.10;99.90;;;;;;4863110;29;20777;-89
2022/05/24 06:42:25;;;;;;;1.00;0.30;;;17.20;99.90;;;;;;4848681;29;20026;-88
2022/05/24 06:44:51;;;;;;;2.00;0.20;;;17.30;99.90;;;;;;4877233;29;20033;-87
2022/05/24 06:47:16;;;;;;;0.50;0.30;;;17.30;99.90;;;;;;4871726;29;20094;-89
2022/05/24 06:49:42;;;;;;;0.95;0.28;;;17.30;99.90;;;;;;4860353;29;20395;-89
2022/05/24 06:52:15;;;;;;;0.85;0.20;;;17.40;99.90;;;;;;4856916;29;20033;-93
2022/05/24 06:54:49;;;;;;;0.82;0.20;;;17.40;99.90;;;;;;4867172;29;20112;-93
2022/05/24 06:57:15;;;;;;;0.45;0.20;;;17.50;99.90;;;;;;4866292;29;20041;-92
2022/05/24 07:02:36;;;;;;;0.43;0.20;;;17.30;99.90;;;;;;4858955;29;20037;-93
2022/05/24 07:05:13;;;;;;;3.20;0.50;;;17.30;99.90;;;;;;4848122;29;20053;-93
2022/05/24 07:07:41;;;;;;;1.75;0.30;;;17.20;99.90;;;;;;4847045;29;20548;-93
2022/05/24 07:10:22;;;;;;;;;;;;;;;;;;;;;
2022/05/24 07:13:04;;;;;;;0.25;0.10;;;17.10;99.90;;;;;;4851021;29;20124;-92
2022/05/24 07:15:35;;;;;;;1.57;0.57;;;17.10;99.90;;;;;;4851716;29;20030;-91
2022/05/24 07:18:04;;;;;;;1.38;0.00;;;17.20;99.90;;;;;;4852751;29;20034;-92
2022/05/24 07:20:33;;;;;;;0.68;0.10;;;16.30;99.90;;;;;;4864091;29;20054;-91
2022/05/24 07:23:14;;;;;;;0.25;0.00;;;15.50;99.90;;;;;;4862421;29;20029;-91
2022/05/24 07:26:21;;;;;;;0.25;0.03;;;14.90;99.90;;;;;;4873708;29;20030;-92
2022/05/24 07:29:20;;;;;;;0.10;0.00;;;14.30;99.90;;;;;;4868106;29;20058;-93
2022/05/24 07:46:16;;;;;;;0.00;0.00;;;14.20;99.90;;;;;;4863264;29;20085;-93
2022/05/24 07:52:07;;;;;;;1.10;0.10;;;14.40;99.90;;;;;;4842153;23;19934;-88
2022/05/24 09:44:29;;;;;;;0.00;0.00;;;17.80;99.90;;;;;;4837981;29;20050;-90
2022/05/24 09:46:57;;;;;;;1.17;0.10;;;17.80;99.90;;;;;;4847456;29;20041;-92
2022/05/24 09:49:42;;;;;;;0.20;0.10;;;17.70;99.90;;;;;;4836729;29;20229;-90
2022/05/24 09:52:16;;;;;;;0.43;0.22;;;17.70;99.90;;;;;;4844045;29;20038;-90
2022/05/24 09:54:58;;;;;;;0.52;0.03;;;17.60;99.90;;;;;;4844481;29;20551;-90
2022/05/24 09:57:40;;;;;;;0.10;0.08;;;17.40;99.90;;;;;;4845884;29;20034;-90
2022/05/24 10:00:26;;;;;;;0.03;0.00;;;17.40;99.90;;;;;;4841050;29;20483;-90
2022/05/24 10:03:09;;;;;;;0.10;0.00;;;17.40;99.90;;;;;;4842822;29;20030;-92
2022/05/24 10:05:39;;;;;;;0.03;0.03;;;17.30;99.90;;;;;;4846662;29;20034;-91
2022/05/24 10:08:20;;;;;;;0.17;0.00;;;17.60;99.90;;;;;;4846460;29;20085;-91
2022/05/24 10:11:05;;;;;;;0.22;0.00;;;17.90;99.90;;;;;;4830453;29;20034;-91
2022/05/24 10:13:46;;;;;;;0.35;0.10;;;17.80;99.90;;;;;;4828812;29;20026;-91
2022/05/24 10:16:50;;;;;;;0.80;0.10;;;17.80;99.90;;;;;;4843605;29;20030;-90
2022/05/24 10:19:57;;;;;;;0.93;0.20;;;17.70;99.90;;;;;;4842508;29;20034;-90
2022/05/24 10:23:00;;;;;;;0.00;0.00;;;17.80;99.90;;;;;;4850415;29;20045;-93
2022/05/24 10:25:35;;;;;;;0.88;0.10;;;18.20;99.90;;;;;;4844787;29;20095;-92
2022/05/24 10:28:42;;;;;;;1.85;0.10;;;18.60;99.90;;;;;;4845305;29;20113;-93
2022/05/24 10:41:07;;;;;;;1.08;0.10;;;19.80;99.90;;;;;;4847346;29;20110;-92
2022/05/24 10:43:48;;;;;;;0.77;0.10;;;20.20;99.80;;;;;;4845792;29;20551;-93
2022/05/24 10:46:25;;;;;;;1.50;0.00;;;20.00;99.90;;;;;;4840363;29;20069;-92
2022/05/24 10:49:50;;;;;;;0.32;0.20;;;20.20;99.20;;;;;;4832213;29;20045;-89
2022/05/24 10:52:40;;;;;;;0.05;0.00;;;20.70;99.20;;;;;;4842151;29;20492;-90
2022/05/24 10:55:31;;;;;;;0.05;0.00;;;20.50;97.60;;;;;;4847744;29;20105;-92
2022/05/24 10:58:33;;;;;;;0.15;0.10;;;20.00;97.50;;;;;;4847624;29;20041;-91
2022/05/24 11:01:33;;;;;;;0.13;0.10;;;19.60;97.70;;;;;;4830274;29;20034;-91
2022/05/24 11:04:51;;;;;;;0.20;0.10;;;19.40;99.10;;;;;;4831927;29;20366;-93
2022/05/24 11:07:35;;;;;;;4.85;1.10;;;19.30;99.10;;;;;;4837780;29;20216;-93
2022/05/24 11:17:01;;;;;;;0.17;0.10;;;19.50;99.90;;;;;;4838585;29;20180;-94
2022/05/24 11:20:14;;;;;;;0.15;0.00;;;19.80;98.80;;;;;;4842095;29;20124;-94
2022/05/24 11:23:11;;;;;;;0.30;0.10;;;20.40;98.90;;;;;;4841551;29;20026;-93
2022/05/24 11:26:14;;;;;;;0.35;0.10;;;20.60;97.30;;;;;;4848385;29;20054;-94
2022/05/24 11:32:44;;;;;;;0.28;0.10;;;20.20;96.00;;;;;;4840048;29;20128;-95
2022/05/24 11:35:44;;;;;;;0.20;0.10;;;19.90;96.90;;;;;;4833654;29;20032;-94
2022/05/24 11:41:39;;;;;;;0.10;0.10;;;20.80;95.20;;;;;;4846302;29;20596;-94
2022/05/24 11:45:03;;;;;;;0.10;0.00;;;20.90;94.40;;;;;;4847371;29;20049;-91
2022/05/24 12:00:16;;;;;;;;;;;22.10;94.50;;;;;;4869105;29;20041;-94
2022/05/24 12:12:35;;;;;;;1.48;0.10;;;22.20;93.30;;;;;;4854328;29;20102;-94
2022/05/24 12:15:43;;;;;;;0.85;0.10;;;21.40;93.50;;;;;;4867464;23;20061;-86
2022/05/24 12:18:33;;;;;;;0.20;0.10;;;21.30;94.50;;;;;;4857122;29;20050;-87
2022/05/24 12:21:47;;;;;;;0.68;0.10;;;21.80;94.00;;;;;;4860164;29;20033;-86
2022/05/24 12:24:26;;;;;;;0.47;0.03;;;22.00;94.10;;;;;;4859518;29;20169;-87
2022/05/24 12:27:16;;;;;;;2.05;0.10;;;21.90;95.00;;;;;;4846406;29;20475;-87
2022/05/24 12:29:46;;;;;;;0.57;0.30;;;22.10;93.40;;;;;;4860393;29;20030;-87
2022/05/24 12:32:16;;;;;;;0.28;0.03;;;21.90;92.30;;;;;;4835830;29;20167;-86
2022/05/24 12:34:42;;;;;;;1.58;0.08;;;22.70;92.50;;;;;;4823416;29;20038;-86
2022/05/24 12:37:29;;;;;;;0.50;0.10;;;22.90;92.80;;;;;;4842804;29;20033;-87
2022/05/24 12:40:37;;;;;;;0.03;0.00;;;23.50;91.40;;;;;;4841232;29;20169;-86
2022/05/24 12:43:13;;;;;;;0.10;0.00;;;23.50;91.60;;;;;;4843014;29;20043;-87
2022/05/24 12:45:45;;;;;;;0.60;0.10;;;23.80;90.90;;;;;;4824924;29;20034;-87
2022/05/24 12:48:41;;;;;;;0.20;0.10;;;23.90;88.30;;;;;;4824023;29;20050;-87
2022/05/24 12:51:18;;;;;;;0.20;0.10;;;24.10;88.20;;;;;;4829258;29;20052;-87
2022/05/24 12:53:44;;;;;;;0.17;0.08;;;24.20;91.10;;;;;;4834079;29;20073;-86
2022/05/24 12:56:22;;;;;;;0.32;0.08;;;24.70;90.00;;;;;;4842619;29;20073;-87
2022/05/24 12:58:51;;;;;;;0.38;0.10;;;24.70;89.10;;;;;;4841130;29;20022;-87
2022/05/24 13:01:27;;;;;;;0.10;0.00;;;24.80;84.80;;;;;;4822710;29;20389;-86
2022/05/24 13:04:01;;;;;;;0.05;0.00;;;24.90;80.50;;;;;;4828127;29;20025;-87
2022/05/24 13:06:33;;;;;;;0.70;0.10;;;24.90;85.60;;;;;;4826392;29;20026;-88
2022/05/24 13:09:16;;;;;;;0.20;0.10;;;25.00;83.30;;;;;;4826705;29;20058;-87
2022/05/24 13:11:44;;;;;;;0.40;0.10;;;25.10;81.90;;;;;;4824878;29;20030;-87
2022/05/24 13:14:33;;;;;;;1.25;0.10;;;25.20;80.00;;;;;;4827613;29;20449;-87
2022/05/24 13:16:59;;;;;;;0.68;0.10;;;25.40;78.70;;;;;;4827027;29;20026;-87
2022/05/24 13:19:46;;;;;;;0.30;0.10;;;25.50;77.10;;;;;;4836796;29;20045;-86
2022/05/24 13:22:13;;;;;;;0.45;0.10;;;25.80;77.30;;;;;;4836658;29;20027;-87
2022/05/24 13:24:59;;;;;;;0.32;0.13;;;24.70;75.70;;;;;;4835136;29;20057;-87
2022/05/24 13:27:46;;;;;;;0.00;0.00;;;23.50;76.60;;;;;;4826235;29;20211;-87
2022/05/24 13:35:49;;;;;;;0.00;0.00;;;21.90;85.30;;;;;;4826721;29;20140;-86
2022/05/24 13:38:23;;;;;;;0.08;0.00;;;21.50;87.10;;;;;;4824031;29;20528;-86
2022/05/24 13:40:54;;;;;;;0.10;0.10;;;21.40;88.30;;;;;;4824442;29;20045;-87
2022/05/24 13:43:29;;;;;;;;;;;21.50;87.60;;;;;;4822368;29;20022;-87
2022/05/24 13:46:21;;;;;;;0.20;0.00;;;21.60;89.40;;;;;;4825578;29;20309;-88
2022/05/24 13:48:59;;;;;;;0.08;0.03;;;21.80;86.70;;;;;;4808638;29;20489;-88
2022/05/24 13:51:29;;;;;;;1.33;0.00;;;22.40;87.70;;;;;;4804501;29;20508;-88
2022/05/24 13:53:55;;;;;;;0.20;0.10;;;23.30;85.60;;;;;;4807267;29;20041;-87
2022/05/24 13:56:50;;;;;;;1.38;0.05;;;23.50;81.70;;;;;;4805945;29;20489;-87
2022/05/24 13:59:23;;;;;;;0.10;0.08;;;23.50;84.10;;;;;;4815723;29;20061;-87
2022/05/24 14:05:23;;;;;;;0.10;0.03;;;24.40;80.60;;;;;;4984901;24;20065;-87
2022/05/24 14:07:56;;;;;;;0.30;0.10;;;23.80;81.80;;;;;;4837106;29;20038;-88
2022/05/24 14:10:24;;;;;;;0.45;0.15;;;23.10;82.60;;;;;;4835101;29;20125;-87
2022/05/24 14:12:50;;;;;;;0.30;0.10;;;23.00;83.10;;;;;;4830041;29;20407;-87
2022/05/24 14:15:18;;;;;;;0.20;0.10;;;22.60;86.40;;;;;;4812456;29;20039;-87
2022/05/24 14:17:43;;;;;;;0.20;0.10;;;22.40;84.70;;;;;;4821273;29;20038;-88
2022/05/24 14:20:12;;;;;;;1.00;0.20;;;22.30;86.00;;;;;;4821933;29;20110;-87
2022/05/24 14:22:40;;;;;;;0.50;0.10;;;22.20;85.80;;;;;;4819796;29;20033;-88
2022/05/24 14:25:08;;;;;;;0.40;0.10;;;22.60;83.50;;;;;;4817185;29;20439;-88
2022/05/24 14:27:34;;;;;;;0.25;0.10;;;23.40;83.40;;;;;;4828528;29;20049;-88
2022/05/24 14:30:11;;;;;;;0.08;0.00;;;23.80;81.20;;;;;;4815161;29;20058;-88
2022/05/24 14:32:38;;;;;;;0.50;0.10;;;23.60;78.10;;;;;;4830096;29;20026;-87
2022/05/24 14:35:14;;;;;;;1.67;0.10;;;23.20;83.00;;;;;;4827153;29;20077;-88
2022/05/24 14:37:43;;;;;;;0.20;0.10;;;22.80;82.50;;;;;;4830700;29;20037;-88
2022/05/24 14:40:19;;;;;;;0.13;0.10;;;22.60;82.50;;;;;;4824866;29;20030;-88
2022/05/24 14:42:54;;;;;;;0.25;0.00;;;22.30;83.70;;;;;;4836166;29;20070;-88
2022/05/24 14:45:40;;;;;;;0.77;0.20;;;22.10;84.20;;;;;;4851340;29;20022;-89
2022/05/24 14:48:06;;;;;;;0.13;0.10;;;21.80;85.10;;;;;;4845586;29;20038;-89
2022/05/24 14:50:46;;;;;;;0.43;0.10;;;21.60;86.10;;;;;;4838672;29;20404;-88
2022/05/24 14:53:18;;;;;;;0.20;0.10;;;21.40;86.40;;;;;;4836294;29;20196;-87
2022/05/24 14:55:49;;;;;;;0.10;0.03;;;21.40;86.80;;;;;;4834502;29;20030;-88
2022/05/24 14:58:18;;;;;;;0.65;0.10;;;21.50;87.20;;;;;;4838798;29;20030;-87
2022/05/24 15:00:46;;;;;;;0.03;0.00;;;21.50;86.70;;;;;;4835844;29;20150;-87
2022/05/24 15:03:14;;;;;;;0.85;0.10;;;21.40;86.80;;;;;;4823460;29;20030;-87
2022/05/24 15:05:51;;;;;;;1.02;0.22;;;21.40;87.70;;;;;;4825948;29;20037;-88
2022/05/24 15:16:49;;;;;;;0.20;0.00;;;21.00;86.70;;;;;;4837488;29;20041;-87
2022/05/24 15:19:26;;;;;;;1.05;0.20;;;21.00;88.20;;;;;;4834684;29;20104;-87
2022/05/24 15:22:05;;;;;;;0.30;0.10;;;21.00;88.90;;;;;;4821947;29;20125;-87
2022/05/24 15:24:40;;;;;;;0.80;0.10;;;20.90;90.10;;;;;;4832861;29;20014;-87
2022/05/24 15:27:09;;;;;;;0.43;0.10;;;20.80;89.10;;;;;;4833885;29;20039;-88
2022/05/24 15:29:58;;;;;;;0.75;0.17;;;20.60;88.80;;;;;;4836435;29;20677;-86
2022/05/24 15:32:25;;;;;;;0.22;0.10;;;20.40;89.50;;;;;;4825450;29;20373;-86
2022/05/24 15:34:57;;;;;;;1.02;0.10;;;20.30;90.10;;;;;;4832527;29;20038;-86
2022/05/24 15:37:31;;;;;;;0.17;0.05;;;20.30;90.40;;;;;;4832646;29;20503;-87
2022/05/24 15:40:07;;;;;;;0.40;0.10;;;20.10;90.50;;;;;;4833183;29;20377;-87
2022/05/24 15:42:43;;;;;;;0.40;0.10;;;19.90;90.60;;;;;;4829503;29;20031;-86
2022/05/24 15:45:11;;;;;;;1.67;0.20;;;19.70;91.30;;;;;;4832986;29;20034;-87
2022/05/24 15:47:39;;;;;;;0.20;0.10;;;19.70;91.40;;;;;;4841898;29;20041;-86
2022/05/24 15:50:10;;;;;;;0.45;0.20;;;19.60;91.60;;;;;;4836184;29;20124;-87
2022/05/24 15:52:47;;;;;;;;;;;19.50;91.50;;;;;;4831916;29;20712;-87
2022/05/24 15:55:18;;;;;;;0.63;0.10;;;19.50;90.90;;;;;;4836501;29;19908;-87
2022/05/24 15:57:52;;;;;;;0.40;0.10;;;19.40;91.40;;;;;;4819321;29;20027;-86
2022/05/24 16:00:26;;;;;;;0.30;0.10;;;19.40;91.50;;;;;;4836099;29;20147;-86
2022/05/24 16:02:59;;;;;;;0.50;0.10;;;19.40;91.90;;;;;;4832687;29;20040;-86
2022/05/24 16:11:48;;;;;;;0.20;0.10;;;19.50;91.40;;;;;;4837757;29;20048;-86
2022/05/24 16:14:33;;;;;;;;;;;19.40;91.80;;;;;;4835061;29;20061;-87
2022/05/24 16:17:09;;;;;;;0.28;0.10;;;19.40;91.90;;;;;;4833581;29;20331;-86
2022/05/24 16:19:47;;;;;;;0.38;0.08;;;19.50;92.30;;;;;;4833113;29;20037;-86
2022/05/24 16:22:17;;;;;;;0.40;0.10;;;19.40;92.40;;;;;;4837898;29;20507;-87
2022/05/24 16:28:15;;;;;;;0.47;0.08;;;19.50;92.30;;;;;;4831917;29;20112;-85
2022/05/24 16:31:28;;;;;;;0.10;0.10;;;19.40;92.20;;;;;;4831750;29;20022;-87
2022/05/24 16:34:54;;;;;;;;;;;;;;;;;;;;;
2022/05/24 16:37:32;;;;;;;0.47;0.10;;;19.50;91.30;;;;;;4806417;29;20034;-86
2022/05/24 16:51:11;;;;;;;0.15;0.00;;;19.50;91.40;;;;;;4871649;29;20115;-87
2022/05/24 17:01:08;;;;;;;0.20;0.10;;;19.50;91.30;;;;;;4792253;29;20040;-87
2022/05/24 17:03:37;;;;;;;0.30;0.10;;;19.40;91.20;;;;;;4813035;29;20038;-87
2022/05/24 17:06:19;;;;;;;0.50;0.10;;;19.20;91.20;;;;;;4815543;29;20416;-87
2022/05/24 17:08:54;;;;;;;0.10;0.00;;;19.10;91.50;;;;;;4829786;29;20026;-88
2022/05/24 17:11:25;;;;;;;0.50;0.20;;;19.10;92.00;;;;;;4838669;29;20032;-87
2022/05/24 17:13:54;;;;;;;0.52;0.10;;;18.90;92.30;;;;;;4836215;29;20026;-87
2022/05/24 17:16:34;;;;;;;1.20;0.10;;;19.00;92.40;;;;;;4835561;29;20511;-89
2022/05/24 17:19:50;;;;;;;0.88;0.10;;;19.00;92.20;;;;;;4825740;29;20034;-87
2022/05/24 17:22:16;;;;;;;0.65;0.15;;;19.10;92.60;;;;;;4814629;29;20419;-88
2022/05/24 17:24:42;;;;;;;0.43;0.10;;;19.10;92.20;;;;;;4830770;29;20015;-88
2022/05/24 17:27:17;;;;;;;0.63;0.20;;;19.10;92.10;;;;;;4829414;29;20433;-89
2022/05/24 17:30:30;;;;;;;0.20;0.10;;;19.10;92.40;;;;;;4847471;29;20034;-87
2022/05/24 17:33:16;;;;;;;1.52;0.10;;;19.10;92.40;;;;;;4882662;29;20093;-88
2022/05/24 17:35:52;;;;;;;0.73;0.08;;;19.10;92.30;;;;;;4836898;29;20035;-88
2022/05/24 17:38:43;;;;;;;6.10;0.30;;;19.10;92.20;;;;;;4837819;29;20048;-88
2022/05/24 17:41:29;;;;;;;0.20;0.10;;;19.00;92.30;;;;;;4846735;29;20034;-87
2022/05/24 17:44:33;;;;;;;0.40;0.10;;;19.00;92.10;;;;;;4835263;29;20039;-87
2022/05/24 17:51:34;;;;;;;0.50;0.17;;;18.80;92.00;;;;;;4827731;29;20566;-87
2022/05/24 17:54:29;;;;;;;0.17;0.00;;;18.70;92.20;;;;;;4836727;29;20029;-87
2022/05/24 18:08:12;;;;;;;2.22;0.20;;;18.30;93.20;;;;;;4810776;29;20042;-87
2022/05/24 18:11:43;;;;;;;;;;;;;;;;;;;;;
2022/05/24 18:14:47;;;;;;;1.25;0.10;;;18.20;92.80;;;;;;4840891;29;20139;-87
2022/05/24 18:23:22;;;;;;;1.50;0.30;;;18.00;93.10;;;;;;4836375;29;20054;-87
2022/05/24 18:34:43;;;;;;;0.10;0.10;;;17.90;93.10;;;;;;4836439;29;20110;-87
2022/05/24 18:37:22;;;;;;;0.30;0.10;;;17.80;93.20;;;;;;4836767;29;20025;-87
2022/05/24 18:40:00;;;;;;;0.32;0.10;;;17.90;93.40;;;;;;4834169;29;20032;-86
2022/05/24 18:42:37;;;;;;;0.60;0.17;;;17.70;93.00;;;;;;4834592;29;20078;-87
2022/05/24 18:45:04;;;;;;;0.60;0.10;;;17.70;93.40;;;;;;4835476;29;20028;-87
2022/05/24 18:47:31;;;;;;;0.10;0.00;;;17.50;93.20;;;;;;4830310;29;20045;-87
2022/05/24 18:49:56;;;;;;;0.30;0.10;;;17.60;93.40;;;;;;4832563;29;20220;-87
2022/05/24 18:52:24;;;;;;;0.30;0.10;;;17.50;93.90;;;;;;4834015;29;20558;-87
2022/05/24 18:54:50;;;;;;;0.65;0.10;;;17.40;94.00;;;;;;4837323;29;20026;-87
2022/05/24 18:57:16;;;;;;;0.70;0.43;;;17.30;93.70;;;;;;4837271;29;20038;-87
2022/05/24 18:59:45;;;;;;;1.35;0.20;;;17.30;93.90;;;;;;4836312;29;20051;-87
2022/05/24 19:02:10;;;;;;;0.55;0.10;;;17.30;93.60;;;;;;4836547;29;20037;-87
2022/05/24 19:04:36;;;;;;;0.47;0.10;;;17.30;94.00;;;;;;4834000;29;20489;-87
2022/05/24 19:07:21;;;;;;;0.05;0.05;;;17.20;93.90;;;;;;4836445;29;20094;-87
2022/05/24 19:09:50;;;;;;;0.65;0.17;;;17.10;93.90;;;;;;4831161;29;20069;-87
2022/05/24 19:12:17;;;;;;;2.75;0.17;;;17.00;94.10;;;;;;4834682;29;20491;-87
2022/05/24 19:14:43;;;;;;;0.32;0.05;;;16.90;94.20;;;;;;4832051;29;20112;-87